sensor_id;sensor_type;location;lat;lon;timestamp;temperature;humidity
81218;DHT22;70689;52.494;13.420;2023-07-13T00:01:50;23.40;34.30
81218;DHT22;70689;52.494;13.420;2023-07-13T00:04:18;23.20;34.80
81218;DHT22;70689;52.494;13.420;2023-07-13T00:06:45;23.10;34.80
81218;DHT22;70689;52.494;13.420;2023-07-13T00:09:15;23.10;35.00
81218;DHT22;70689;52.494;13.420;2023-07-13T00:11:42;23.20;34.80
81218;DHT22;70689;52.494;13.420;2023-07-13T00:14:09;23.10;35.00
81218;DHT22;70689;52.494;13.420;2023-07-13T00:16:37;23.10;34.90
81218;DHT22;70689;52.494;13.420;2023-07-13T00:19:03;23.10;34.80
81218;DHT22;70689;52.494;13.420;2023-07-13T00:21:29;23.20;34.80
81218;DHT22;70689;52.494;13.420;2023-07-13T00:23:55;23.10;35.10
81218;DHT22;70689;52.494;13.420;2023-07-13T00:26:20;23.00;35.50
81218;DHT22;70689;52.494;13.420;2023-07-13T00:28:46;23.00;35.30
81218;DHT22;70689;52.494;13.420;2023-07-13T00:31:13;23.00;35.20
81218;DHT22;70689;52.494;13.420;2023-07-13T00:33:40;23.10;35.20
81218;DHT22;70689;52.494;13.420;2023-07-13T00:36:06;23.00;35.40
81218;DHT22;70689;52.494;13.420;2023-07-13T00:38:32;22.90;35.60
81218;DHT22;70689;52.494;13.420;2023-07-13T00:40:58;22.80;35.80
81218;DHT22;70689;52.494;13.420;2023-07-13T00:43:27;22.80;35.70
81218;DHT22;70689;52.494;13.420;2023-07-13T00:48:21;22.80;35.80
81218;DHT22;70689;52.494;13.420;2023-07-13T00:50:50;22.90;35.80
81218;DHT22;70689;52.494;13.420;2023-07-13T00:53:18;22.90;35.90
81218;DHT22;70689;52.494;13.420;2023-07-13T00:55:44;22.70;36.10
81218;DHT22;70689;52.494;13.420;2023-07-13T00:58:11;22.60;36.20
81218;DHT22;70689;52.494;13.420;2023-07-13T01:00:38;22.50;36.30
81218;DHT22;70689;52.494;13.420;2023-07-13T01:03:04;22.40;36.60
81218;DHT22;70689;52.494;13.420;2023-07-13T01:05:32;22.30;36.60
81218;DHT22;70689;52.494;13.420;2023-07-13T01:07:59;22.20;36.60
81218;DHT22;70689;52.494;13.420;2023-07-13T01:10:26;22.10;37.00
81218;DHT22;70689;52.494;13.420;2023-07-13T01:12:53;22.00;37.20
81218;DHT22;70689;52.494;13.420;2023-07-13T01:15:44;21.90;37.40
81218;DHT22;70689;52.494;13.420;2023-07-13T01:18:14;22.30;37.80
81218;DHT22;70689;52.494;13.420;2023-07-13T01:20:40;22.40;36.40
81218;DHT22;70689;52.494;13.420;2023-07-13T01:23:09;22.60;36.10
81218;DHT22;70689;52.494;13.420;2023-07-13T01:25:36;22.60;36.00
81218;DHT22;70689;52.494;13.420;2023-07-13T01:28:04;22.60;36.30
81218;DHT22;70689;52.494;13.420;2023-07-13T01:30:29;22.50;36.80
81218;DHT22;70689;52.494;13.420;2023-07-13T01:32:56;22.50;36.80
81218;DHT22;70689;52.494;13.420;2023-07-13T01:35:22;22.40;36.70
81218;DHT22;70689;52.494;13.420;2023-07-13T01:37:47;22.40;37.00
81218;DHT22;70689;52.494;13.420;2023-07-13T01:40:13;22.40;36.90
81218;DHT22;70689;52.494;13.420;2023-07-13T01:42:39;22.40;37.10
81218;DHT22;70689;52.494;13.420;2023-07-13T01:45:06;22.40;37.10
81218;DHT22;70689;52.494;13.420;2023-07-13T01:47:32;22.40;37.00
81218;DHT22;70689;52.494;13.420;2023-07-13T01:49:57;22.40;37.00
81218;DHT22;70689;52.494;13.420;2023-07-13T01:52:23;22.30;37.10
81218;DHT22;70689;52.494;13.420;2023-07-13T01:54:49;22.30;37.10
81218;DHT22;70689;52.494;13.420;2023-07-13T01:57:16;22.30;37.10
81218;DHT22;70689;52.494;13.420;2023-07-13T01:59:42;22.30;37.20
81218;DHT22;70689;52.494;13.420;2023-07-13T02:02:07;22.30;37.20
81218;DHT22;70689;52.494;13.420;2023-07-13T02:04:33;22.30;37.30
81218;DHT22;70689;52.494;13.420;2023-07-13T02:06:59;22.20;37.50
81218;DHT22;70689;52.494;13.420;2023-07-13T02:09:25;22.10;37.70
81218;DHT22;70689;52.494;13.420;2023-07-13T02:11:50;22.00;38.20
81218;DHT22;70689;52.494;13.420;2023-07-13T02:14:16;21.70;39.10
81218;DHT22;70689;52.494;13.420;2023-07-13T02:16:42;21.60;39.60
81218;DHT22;70689;52.494;13.420;2023-07-13T02:19:08;21.70;39.60
81218;DHT22;70689;52.494;13.420;2023-07-13T02:21:34;21.60;39.90
81218;DHT22;70689;52.494;13.420;2023-07-13T02:24:00;21.20;41.00
81218;DHT22;70689;52.494;13.420;2023-07-13T02:26:26;21.10;41.50
81218;DHT22;70689;52.494;13.420;2023-07-13T02:28:52;21.20;41.40
81218;DHT22;70689;52.494;13.420;2023-07-13T02:31:18;21.40;41.10
81218;DHT22;70689;52.494;13.420;2023-07-13T02:33:44;21.50;40.90
81218;DHT22;70689;52.494;13.420;2023-07-13T02:36:10;21.40;41.00
81218;DHT22;70689;52.494;13.420;2023-07-13T02:38:36;21.50;40.70
81218;DHT22;70689;52.494;13.420;2023-07-13T02:41:07;21.70;40.40
81218;DHT22;70689;52.494;13.420;2023-07-13T02:43:34;21.70;40.10
81218;DHT22;70689;52.494;13.420;2023-07-13T02:46:01;21.70;40.20
81218;DHT22;70689;52.494;13.420;2023-07-13T02:48:35;21.50;41.00
81218;DHT22;70689;52.494;13.420;2023-07-13T02:51:01;21.40;42.20
81218;DHT22;70689;52.494;13.420;2023-07-13T02:53:27;21.20;41.70
81218;DHT22;70689;52.494;13.420;2023-07-13T02:55:52;21.20;41.90
81218;DHT22;70689;52.494;13.420;2023-07-13T02:58:18;21.20;42.20
81218;DHT22;70689;52.494;13.420;2023-07-13T03:00:45;21.20;42.30
81218;DHT22;70689;52.494;13.420;2023-07-13T03:03:12;21.30;41.80
81218;DHT22;70689;52.494;13.420;2023-07-13T03:05:41;21.30;42.30
81218;DHT22;70689;52.494;13.420;2023-07-13T03:08:08;21.00;42.30
81218;DHT22;70689;52.494;13.420;2023-07-13T03:10:34;20.90;42.70
81218;DHT22;70689;52.494;13.420;2023-07-13T03:13:00;20.80;43.20
81218;DHT22;70689;52.494;13.420;2023-07-13T03:15:26;20.60;43.90
81218;DHT22;70689;52.494;13.420;2023-07-13T03:17:52;20.60;43.70
81218;DHT22;70689;52.494;13.420;2023-07-13T03:20:18;20.70;43.60
81218;DHT22;70689;52.494;13.420;2023-07-13T03:22:45;20.70;43.50
81218;DHT22;70689;52.494;13.420;2023-07-13T03:25:11;20.60;43.90
81218;DHT22;70689;52.494;13.420;2023-07-13T03:27:37;20.60;44.20
81218;DHT22;70689;52.494;13.420;2023-07-13T03:30:04;20.70;43.80
81218;DHT22;70689;52.494;13.420;2023-07-13T03:32:30;20.80;43.80
81218;DHT22;70689;52.494;13.420;2023-07-13T03:34:56;20.80;43.70
81218;DHT22;70689;52.494;13.420;2023-07-13T03:37:21;20.90;43.40
81218;DHT22;70689;52.494;13.420;2023-07-13T03:39:47;21.00;43.20
81218;DHT22;70689;52.494;13.420;2023-07-13T03:42:13;21.20;42.60
81218;DHT22;70689;52.494;13.420;2023-07-13T03:44:40;21.20;42.70
81218;DHT22;70689;52.494;13.420;2023-07-13T03:47:06;21.30;42.70
81218;DHT22;70689;52.494;13.420;2023-07-13T03:49:34;21.40;42.40
81218;DHT22;70689;52.494;13.420;2023-07-13T03:52:00;21.40;42.40
81218;DHT22;70689;52.494;13.420;2023-07-13T03:54:26;21.40;42.10
81218;DHT22;70689;52.494;13.420;2023-07-13T03:56:51;21.40;42.20
81218;DHT22;70689;52.494;13.420;2023-07-13T03:59:17;21.50;42.10
81218;DHT22;70689;52.494;13.420;2023-07-13T04:01:44;21.50;42.50
81218;DHT22;70689;52.494;13.420;2023-07-13T04:04:09;21.50;42.30
81218;DHT22;70689;52.494;13.420;2023-07-13T04:06:35;21.70;42.30
81218;DHT22;70689;52.494;13.420;2023-07-13T04:09:03;21.70;42.00
81218;DHT22;70689;52.494;13.420;2023-07-13T04:11:31;21.80;42.10
81218;DHT22;70689;52.494;13.420;2023-07-13T04:13:57;21.80;41.80
81218;DHT22;70689;52.494;13.420;2023-07-13T04:16:24;21.70;42.00
81218;DHT22;70689;52.494;13.420;2023-07-13T04:18:50;21.80;41.80
81218;DHT22;70689;52.494;13.420;2023-07-13T04:21:16;21.90;41.10
81218;DHT22;70689;52.494;13.420;2023-07-13T04:23:42;21.90;41.20
81218;DHT22;70689;52.494;13.420;2023-07-13T04:26:08;21.80;41.20
81218;DHT22;70689;52.494;13.420;2023-07-13T04:28:34;21.40;42.30
81218;DHT22;70689;52.494;13.420;2023-07-13T04:31:00;20.90;43.70
81218;DHT22;70689;52.494;13.420;2023-07-13T04:33:26;20.50;44.70
81218;DHT22;70689;52.494;13.420;2023-07-13T04:35:54;20.20;46.10
81218;DHT22;70689;52.494;13.420;2023-07-13T04:38:22;20.00;46.60
81218;DHT22;70689;52.494;13.420;2023-07-13T04:40:48;19.80;47.10
81218;DHT22;70689;52.494;13.420;2023-07-13T04:43:14;19.70;47.80
81218;DHT22;70689;52.494;13.420;2023-07-13T04:45:40;19.70;48.30
81218;DHT22;70689;52.494;13.420;2023-07-13T04:48:06;19.70;47.90
81218;DHT22;70689;52.494;13.420;2023-07-13T04:50:32;19.70;47.60
81218;DHT22;70689;52.494;13.420;2023-07-13T04:52:58;19.60;48.30
81218;DHT22;70689;52.494;13.420;2023-07-13T04:55:24;19.70;48.10
81218;DHT22;70689;52.494;13.420;2023-07-13T04:57:51;19.70;47.70
81218;DHT22;70689;52.494;13.420;2023-07-13T05:00:17;19.80;47.60
81218;DHT22;70689;52.494;13.420;2023-07-13T05:02:45;19.90;47.90
81218;DHT22;70689;52.494;13.420;2023-07-13T05:05:11;20.00;47.20
81218;DHT22;70689;52.494;13.420;2023-07-13T05:07:37;20.30;46.70
81218;DHT22;70689;52.494;13.420;2023-07-13T05:10:03;20.40;45.90
81218;DHT22;70689;52.494;13.420;2023-07-13T05:12:30;20.60;45.70
81218;DHT22;70689;52.494;13.420;2023-07-13T05:14:56;20.80;44.70
81218;DHT22;70689;52.494;13.420;2023-07-13T05:17:21;20.90;44.20
81218;DHT22;70689;52.494;13.420;2023-07-13T05:19:47;21.10;43.80
81218;DHT22;70689;52.494;13.420;2023-07-13T05:22:13;21.20;43.20
81218;DHT22;70689;52.494;13.420;2023-07-13T05:24:38;21.20;42.80
81218;DHT22;70689;52.494;13.420;2023-07-13T05:27:04;21.30;43.20
81218;DHT22;70689;52.494;13.420;2023-07-13T05:29:30;21.40;42.80
81218;DHT22;70689;52.494;13.420;2023-07-13T05:31:56;21.40;42.30
81218;DHT22;70689;52.494;13.420;2023-07-13T05:34:22;21.60;42.00
81218;DHT22;70689;52.494;13.420;2023-07-13T05:36:48;21.70;41.70
81218;DHT22;70689;52.494;13.420;2023-07-13T05:39:14;21.80;41.50
81218;DHT22;70689;52.494;13.420;2023-07-13T05:41:40;22.00;40.80
81218;DHT22;70689;52.494;13.420;2023-07-13T05:44:05;22.00;40.60
81218;DHT22;70689;52.494;13.420;2023-07-13T05:46:31;22.10;40.90
81218;DHT22;70689;52.494;13.420;2023-07-13T05:48:57;22.30;40.30
81218;DHT22;70689;52.494;13.420;2023-07-13T05:51:23;22.40;40.00
81218;DHT22;70689;52.494;13.420;2023-07-13T05:53:49;22.30;39.90
81218;DHT22;70689;52.494;13.420;2023-07-13T05:56:14;22.30;39.90
81218;DHT22;70689;52.494;13.420;2023-07-13T05:58:40;22.40;40.00
81218;DHT22;70689;52.494;13.420;2023-07-13T06:01:10;22.70;39.60
81218;DHT22;70689;52.494;13.420;2023-07-13T06:03:37;22.80;39.40
81218;DHT22;70689;52.494;13.420;2023-07-13T06:06:06;23.10;38.80
81218;DHT22;70689;52.494;13.420;2023-07-13T06:08:33;23.10;39.60
81218;DHT22;70689;52.494;13.420;2023-07-13T06:11:17;23.40;37.60
81218;DHT22;70689;52.494;13.420;2023-07-13T06:13:43;23.50;37.30
81218;DHT22;70689;52.494;13.420;2023-07-13T06:16:09;23.50;37.10
81218;DHT22;70689;52.494;13.420;2023-07-13T06:18:36;23.50;37.10
81218;DHT22;70689;52.494;13.420;2023-07-13T06:21:09;23.50;37.10
81218;DHT22;70689;52.494;13.420;2023-07-13T06:23:35;23.60;37.20
81218;DHT22;70689;52.494;13.420;2023-07-13T06:26:01;23.30;36.70
81218;DHT22;70689;52.494;13.420;2023-07-13T06:28:26;23.40;37.90
81218;DHT22;70689;52.494;13.420;2023-07-13T06:30:52;23.60;36.60
81218;DHT22;70689;52.494;13.420;2023-07-13T06:33:18;23.50;37.10
81218;DHT22;70689;52.494;13.420;2023-07-13T06:35:43;23.60;37.00
81218;DHT22;70689;52.494;13.420;2023-07-13T06:38:09;23.80;36.50
81218;DHT22;70689;52.494;13.420;2023-07-13T06:40:35;24.20;35.20
81218;DHT22;70689;52.494;13.420;2023-07-13T06:43:01;24.20;34.90
81218;DHT22;70689;52.494;13.420;2023-07-13T06:45:26;24.40;34.50
81218;DHT22;70689;52.494;13.420;2023-07-13T06:47:52;24.50;34.20
81218;DHT22;70689;52.494;13.420;2023-07-13T06:50:17;24.30;34.60
81218;DHT22;70689;52.494;13.420;2023-07-13T06:52:43;24.40;34.70
81218;DHT22;70689;52.494;13.420;2023-07-13T06:55:09;24.50;34.40
81218;DHT22;70689;52.494;13.420;2023-07-13T06:57:35;24.60;34.00
81218;DHT22;70689;52.494;13.420;2023-07-13T07:00:00;24.60;33.60
81218;DHT22;70689;52.494;13.420;2023-07-13T07:02:26;24.70;33.50
81218;DHT22;70689;52.494;13.420;2023-07-13T07:04:52;25.00;32.80
81218;DHT22;70689;52.494;13.420;2023-07-13T07:07:23;24.90;32.30
81218;DHT22;70689;52.494;13.420;2023-07-13T07:09:49;25.00;32.10
81218;DHT22;70689;52.494;13.420;2023-07-13T07:12:15;25.10;32.20
81218;DHT22;70689;52.494;13.420;2023-07-13T07:14:40;25.20;31.50
81218;DHT22;70689;52.494;13.420;2023-07-13T07:17:06;25.00;31.90
81218;DHT22;70689;52.494;13.420;2023-07-13T07:19:32;25.00;32.30
81218;DHT22;70689;52.494;13.420;2023-07-13T07:21:57;25.60;30.90
81218;DHT22;70689;52.494;13.420;2023-07-13T07:24:23;26.70;27.60
81218;DHT22;70689;52.494;13.420;2023-07-13T07:26:48;27.90;25.90
81218;DHT22;70689;52.494;13.420;2023-07-13T07:29:14;29.00;24.40
81218;DHT22;70689;52.494;13.420;2023-07-13T07:31:40;30.00;23.20
81218;DHT22;70689;52.494;13.420;2023-07-13T07:34:05;30.60;22.20
81218;DHT22;70689;52.494;13.420;2023-07-13T07:36:31;31.40;21.40
81218;DHT22;70689;52.494;13.420;2023-07-13T07:38:57;31.40;20.70
81218;DHT22;70689;52.494;13.420;2023-07-13T07:41:23;31.10;20.80
81218;DHT22;70689;52.494;13.420;2023-07-13T07:43:48;30.20;21.80
81218;DHT22;70689;52.494;13.420;2023-07-13T07:46:14;29.60;22.70
81218;DHT22;70689;52.494;13.420;2023-07-13T07:48:40;29.30;22.60
81218;DHT22;70689;52.494;13.420;2023-07-13T07:51:05;29.00;23.20
81218;DHT22;70689;52.494;13.420;2023-07-13T07:53:31;28.60;24.00
81218;DHT22;70689;52.494;13.420;2023-07-13T07:55:57;28.60;24.50
81218;DHT22;70689;52.494;13.420;2023-07-13T07:58:22;29.00;23.50
81218;DHT22;70689;52.494;13.420;2023-07-13T08:00:48;28.80;23.90
81218;DHT22;70689;52.494;13.420;2023-07-13T08:03:13;28.50;24.70
81218;DHT22;70689;52.494;13.420;2023-07-13T08:05:39;28.00;25.20
81218;DHT22;70689;52.494;13.420;2023-07-13T08:08:05;27.50;26.20
81218;DHT22;70689;52.494;13.420;2023-07-13T08:10:30;27.40;26.50
81218;DHT22;70689;52.494;13.420;2023-07-13T08:12:56;27.00;26.70
81218;DHT22;70689;52.494;13.420;2023-07-13T08:15:22;26.70;26.90
81218;DHT22;70689;52.494;13.420;2023-07-13T08:17:48;26.50;27.40
81218;DHT22;70689;52.494;13.420;2023-07-13T08:20:14;26.40;28.00
81218;DHT22;70689;52.494;13.420;2023-07-13T08:22:40;26.80;27.00
81218;DHT22;70689;52.494;13.420;2023-07-13T08:25:06;27.50;26.40
81218;DHT22;70689;52.494;13.420;2023-07-13T08:27:33;27.30;26.00
81218;DHT22;70689;52.494;13.420;2023-07-13T08:29:59;27.20;25.90
81218;DHT22;70689;52.494;13.420;2023-07-13T08:32:24;27.20;25.60
81218;DHT22;70689;52.494;13.420;2023-07-13T08:34:51;27.60;25.40
81218;DHT22;70689;52.494;13.420;2023-07-13T08:37:17;27.50;25.10
81218;DHT22;70689;52.494;13.420;2023-07-13T08:39:43;27.30;25.60
81218;DHT22;70689;52.494;13.420;2023-07-13T08:47:29;27.00;26.60
81218;DHT22;70689;52.494;13.420;2023-07-13T08:49:56;26.80;26.80
81218;DHT22;70689;52.494;13.420;2023-07-13T08:52:36;26.70;28.00
81218;DHT22;70689;52.494;13.420;2023-07-13T08:55:16;26.70;27.70
81218;DHT22;70689;52.494;13.420;2023-07-13T08:57:46;26.70;27.30
81218;DHT22;70689;52.494;13.420;2023-07-13T09:00:14;26.40;27.20
81218;DHT22;70689;52.494;13.420;2023-07-13T09:03:00;25.80;28.60
81218;DHT22;70689;52.494;13.420;2023-07-13T09:05:28;25.70;29.20
81218;DHT22;70689;52.494;13.420;2023-07-13T09:10:44;26.80;26.30
81218;DHT22;70689;52.494;13.420;2023-07-13T09:13:37;27.00;26.30
81218;DHT22;70689;52.494;13.420;2023-07-13T09:16:05;27.30;25.30
81218;DHT22;70689;52.494;13.420;2023-07-13T09:18:37;27.40;25.10
81218;DHT22;70689;52.494;13.420;2023-07-13T09:23:35;27.50;25.50
81218;DHT22;70689;52.494;13.420;2023-07-13T09:26:20;27.60;24.10
81218;DHT22;70689;52.494;13.420;2023-07-13T09:28:49;28.10;22.90
81218;DHT22;70689;52.494;13.420;2023-07-13T09:31:28;27.70;22.90
81218;DHT22;70689;52.494;13.420;2023-07-13T09:33:56;27.70;23.90
81218;DHT22;70689;52.494;13.420;2023-07-13T09:36:28;27.60;23.70
81218;DHT22;70689;52.494;13.420;2023-07-13T09:39:31;27.70;23.50
81218;DHT22;70689;52.494;13.420;2023-07-13T09:42:17;28.00;23.00
81218;DHT22;70689;52.494;13.420;2023-07-13T09:45:01;29.30;22.70
81218;DHT22;70689;52.494;13.420;2023-07-13T09:47:30;29.30;21.70
81218;DHT22;70689;52.494;13.420;2023-07-13T09:50:03;29.50;21.20
81218;DHT22;70689;52.494;13.420;2023-07-13T09:52:44;29.80;20.00
81218;DHT22;70689;52.494;13.420;2023-07-13T09:55:30;30.70;18.30
81218;DHT22;70689;52.494;13.420;2023-07-13T09:57:56;31.10;18.60
81218;DHT22;70689;52.494;13.420;2023-07-13T10:00:26;31.00;18.90
81218;DHT22;70689;52.494;13.420;2023-07-13T10:03:13;31.00;19.00
81218;DHT22;70689;52.494;13.420;2023-07-13T10:05:43;30.40;18.90
81218;DHT22;70689;52.494;13.420;2023-07-13T10:08:23;29.00;19.90
81218;DHT22;70689;52.494;13.420;2023-07-13T10:11:00;28.10;21.40
81218;DHT22;70689;52.494;13.420;2023-07-13T10:13:35;27.70;21.90
81218;DHT22;70689;52.494;13.420;2023-07-13T10:16:06;27.10;23.10
81218;DHT22;70689;52.494;13.420;2023-07-13T10:21:21;27.60;23.20
81218;DHT22;70689;52.494;13.420;2023-07-13T10:23:51;27.70;22.90
81218;DHT22;70689;52.494;13.420;2023-07-13T10:26:27;27.50;22.80
81218;DHT22;70689;52.494;13.420;2023-07-13T10:28:59;27.80;22.20
81218;DHT22;70689;52.494;13.420;2023-07-13T10:31:26;28.20;21.70
81218;DHT22;70689;52.494;13.420;2023-07-13T10:33:53;28.10;21.80
81218;DHT22;70689;52.494;13.420;2023-07-13T10:36:35;27.40;23.20
81218;DHT22;70689;52.494;13.420;2023-07-13T10:39:05;27.50;22.60
81218;DHT22;70689;52.494;13.420;2023-07-13T10:41:34;28.20;21.80
81218;DHT22;70689;52.494;13.420;2023-07-13T10:44:02;28.50;20.80
81218;DHT22;70689;52.494;13.420;2023-07-13T10:46:29;29.00;21.30
81218;DHT22;70689;52.494;13.420;2023-07-13T10:48:58;29.30;20.30
81218;DHT22;70689;52.494;13.420;2023-07-13T10:51:26;28.60;20.60
81218;DHT22;70689;52.494;13.420;2023-07-13T10:54:21;28.50;20.30
81218;DHT22;70689;52.494;13.420;2023-07-13T10:56:53;28.80;19.70
81218;DHT22;70689;52.494;13.420;2023-07-13T10:59:32;29.70;19.50
81218;DHT22;70689;52.494;13.420;2023-07-13T11:04:41;31.10;17.70
81218;DHT22;70689;52.494;13.420;2023-07-13T11:07:22;31.90;16.40
81218;DHT22;70689;52.494;13.420;2023-07-13T11:10:00;33.80;14.10
81218;DHT22;70689;52.494;13.420;2023-07-13T11:12:51;34.50;13.30
81218;DHT22;70689;52.494;13.420;2023-07-13T11:15:32;35.80;12.30
81218;DHT22;70689;52.494;13.420;2023-07-13T11:18:03;36.50;11.20
81218;DHT22;70689;52.494;13.420;2023-07-13T11:20:38;35.90;11.90
81218;DHT22;70689;52.494;13.420;2023-07-13T11:25:41;37.10;10.70
81218;DHT22;70689;52.494;13.420;2023-07-13T11:30:41;39.00;8.90
81218;DHT22;70689;52.494;13.420;2023-07-13T11:33:15;38.90;8.80
81218;DHT22;70689;52.494;13.420;2023-07-13T11:38:27;38.60;8.90
81218;DHT22;70689;52.494;13.420;2023-07-13T11:40:54;38.10;9.30
81218;DHT22;70689;52.494;13.420;2023-07-13T11:43:21;38.10;9.30
81218;DHT22;70689;52.494;13.420;2023-07-13T11:45:49;38.10;9.50
81218;DHT22;70689;52.494;13.420;2023-07-13T11:48:28;38.20;9.70
81218;DHT22;70689;52.494;13.420;2023-07-13T11:51:01;39.30;9.20
81218;DHT22;70689;52.494;13.420;2023-07-13T11:53:29;39.80;8.80
81218;DHT22;70689;52.494;13.420;2023-07-13T11:55:57;39.40;8.50
81218;DHT22;70689;52.494;13.420;2023-07-13T11:58:25;38.20;9.90
81218;DHT22;70689;52.494;13.420;2023-07-13T12:00:55;38.00;9.80
81218;DHT22;70689;52.494;13.420;2023-07-13T12:03:24;38.00;9.80
81218;DHT22;70689;52.494;13.420;2023-07-13T12:06:01;38.60;9.00
81218;DHT22;70689;52.494;13.420;2023-07-13T12:08:28;38.30;9.50
81218;DHT22;70689;52.494;13.420;2023-07-13T12:10:59;38.00;9.30
81218;DHT22;70689;52.494;13.420;2023-07-13T12:13:27;37.70;9.50
81218;DHT22;70689;52.494;13.420;2023-07-13T12:15:54;37.20;10.40
81218;DHT22;70689;52.494;13.420;2023-07-13T12:18:23;37.90;9.20
81218;DHT22;70689;52.494;13.420;2023-07-13T12:20:56;37.90;9.70
81218;DHT22;70689;52.494;13.420;2023-07-13T12:23:34;38.00;9.60
81218;DHT22;70689;52.494;13.420;2023-07-13T12:26:03;37.80;10.10
81218;DHT22;70689;52.494;13.420;2023-07-13T12:28:35;37.30;10.80
81218;DHT22;70689;52.494;13.420;2023-07-13T12:31:22;37.30;11.00
81218;DHT22;70689;52.494;13.420;2023-07-13T12:33:56;36.00;11.80
81218;DHT22;70689;52.494;13.420;2023-07-13T12:36:23;36.80;11.10
81218;DHT22;70689;52.494;13.420;2023-07-13T12:38:49;36.50;11.10
81218;DHT22;70689;52.494;13.420;2023-07-13T12:41:15;36.00;11.30
81218;DHT22;70689;52.494;13.420;2023-07-13T12:43:41;35.30;12.00
81218;DHT22;70689;52.494;13.420;2023-07-13T12:46:21;34.20;12.90
81218;DHT22;70689;52.494;13.420;2023-07-13T12:48:52;33.10;14.20
81218;DHT22;70689;52.494;13.420;2023-07-13T12:51:22;31.90;15.60
81218;DHT22;70689;52.494;13.420;2023-07-13T12:53:50;31.30;15.50
81218;DHT22;70689;52.494;13.420;2023-07-13T12:56:21;30.60;16.30
81218;DHT22;70689;52.494;13.420;2023-07-13T12:58:49;30.00;17.20
81218;DHT22;70689;52.494;13.420;2023-07-13T13:01:21;29.80;17.70
81218;DHT22;70689;52.494;13.420;2023-07-13T13:03:52;29.50;18.20
81218;DHT22;70689;52.494;13.420;2023-07-13T13:06:28;29.30;18.70
81218;DHT22;70689;52.494;13.420;2023-07-13T13:08:58;29.00;18.50
81218;DHT22;70689;52.494;13.420;2023-07-13T13:11:27;28.80;18.10
81218;DHT22;70689;52.494;13.420;2023-07-13T13:13:53;28.90;18.30
81218;DHT22;70689;52.494;13.420;2023-07-13T13:16:31;29.00;18.30
81218;DHT22;70689;52.494;13.420;2023-07-13T13:19:14;28.90;18.50
81218;DHT22;70689;52.494;13.420;2023-07-13T13:21:42;29.10;18.50
81218;DHT22;70689;52.494;13.420;2023-07-13T13:24:17;29.20;18.60
81218;DHT22;70689;52.494;13.420;2023-07-13T13:26:45;29.10;18.30
81218;DHT22;70689;52.494;13.420;2023-07-13T13:29:19;29.50;18.40
81218;DHT22;70689;52.494;13.420;2023-07-13T13:31:45;29.10;18.70
81218;DHT22;70689;52.494;13.420;2023-07-13T13:34:13;29.00;19.10
81218;DHT22;70689;52.494;13.420;2023-07-13T13:36:40;28.90;19.40
81218;DHT22;70689;52.494;13.420;2023-07-13T13:39:23;28.80;19.60
81218;DHT22;70689;52.494;13.420;2023-07-13T13:41:51;28.60;19.70
81218;DHT22;70689;52.494;13.420;2023-07-13T13:44:18;28.30;19.80
81218;DHT22;70689;52.494;13.420;2023-07-13T13:46:47;28.40;18.90
81218;DHT22;70689;52.494;13.420;2023-07-13T13:49:19;28.70;19.10
81218;DHT22;70689;52.494;13.420;2023-07-13T13:51:46;28.80;18.30
81218;DHT22;70689;52.494;13.420;2023-07-13T13:54:13;28.70;18.50
81218;DHT22;70689;52.494;13.420;2023-07-13T13:56:44;28.90;19.00
81218;DHT22;70689;52.494;13.420;2023-07-13T13:59:11;28.80;19.10
81218;DHT22;70689;52.494;13.420;2023-07-13T14:01:37;28.70;19.80
81218;DHT22;70689;52.494;13.420;2023-07-13T14:04:04;28.90;19.40
81218;DHT22;70689;52.494;13.420;2023-07-13T14:06:31;29.00;18.70
81218;DHT22;70689;52.494;13.420;2023-07-13T14:08:57;28.90;19.00
81218;DHT22;70689;52.494;13.420;2023-07-13T14:11:22;28.70;19.30
81218;DHT22;70689;52.494;13.420;2023-07-13T14:13:56;28.60;20.40
81218;DHT22;70689;52.494;13.420;2023-07-13T14:16:26;28.80;19.50
81218;DHT22;70689;52.494;13.420;2023-07-13T14:18:53;28.80;19.20
81218;DHT22;70689;52.494;13.420;2023-07-13T14:21:21;28.70;19.20
81218;DHT22;70689;52.494;13.420;2023-07-13T14:23:48;28.50;18.70
81218;DHT22;70689;52.494;13.420;2023-07-13T14:26:25;28.30;19.10
81218;DHT22;70689;52.494;13.420;2023-07-13T14:28:54;28.20;19.40
81218;DHT22;70689;52.494;13.420;2023-07-13T14:31:22;28.40;19.80
81218;DHT22;70689;52.494;13.420;2023-07-13T14:33:48;28.40;20.10
81218;DHT22;70689;52.494;13.420;2023-07-13T14:38:45;28.20;20.00
81218;DHT22;70689;52.494;13.420;2023-07-13T14:41:11;28.30;20.30
81218;DHT22;70689;52.494;13.420;2023-07-13T14:43:36;28.40;20.20
81218;DHT22;70689;52.494;13.420;2023-07-13T14:46:02;28.40;19.90
81218;DHT22;70689;52.494;13.420;2023-07-13T14:48:30;28.10;20.10
81218;DHT22;70689;52.494;13.420;2023-07-13T14:50:57;28.20;20.40
81218;DHT22;70689;52.494;13.420;2023-07-13T14:53:25;28.10;20.50
81218;DHT22;70689;52.494;13.420;2023-07-13T14:55:53;28.10;20.60
81218;DHT22;70689;52.494;13.420;2023-07-13T14:58:18;28.20;20.80
81218;DHT22;70689;52.494;13.420;2023-07-13T15:00:44;28.20;20.30
81218;DHT22;70689;52.494;13.420;2023-07-13T15:03:21;28.10;19.70
81218;DHT22;70689;52.494;13.420;2023-07-13T15:05:48;28.10;20.10
81218;DHT22;70689;52.494;13.420;2023-07-13T15:08:15;28.00;20.20
81218;DHT22;70689;52.494;13.420;2023-07-13T15:10:41;28.20;20.50
81218;DHT22;70689;52.494;13.420;2023-07-13T15:13:15;28.40;19.90
81218;DHT22;70689;52.494;13.420;2023-07-13T15:15:44;28.50;19.90
81218;DHT22;70689;52.494;13.420;2023-07-13T15:18:12;28.60;19.30
81218;DHT22;70689;52.494;13.420;2023-07-13T15:20:38;28.50;19.40
81218;DHT22;70689;52.494;13.420;2023-07-13T15:23:04;28.20;19.60
81218;DHT22;70689;52.494;13.420;2023-07-13T15:25:31;28.00;19.70
81218;DHT22;70689;52.494;13.420;2023-07-13T15:27:59;28.10;19.50
81218;DHT22;70689;52.494;13.420;2023-07-13T15:30:27;28.20;19.50
81218;DHT22;70689;52.494;13.420;2023-07-13T15:32:54;28.10;19.20
81218;DHT22;70689;52.494;13.420;2023-07-13T15:35:24;27.90;19.40
81218;DHT22;70689;52.494;13.420;2023-07-13T15:37:50;27.70;19.50
81218;DHT22;70689;52.494;13.420;2023-07-13T15:40:17;27.70;19.70
81218;DHT22;70689;52.494;13.420;2023-07-13T15:42:44;27.70;19.10
81218;DHT22;70689;52.494;13.420;2023-07-13T15:45:21;27.80;19.60
81218;DHT22;70689;52.494;13.420;2023-07-13T15:47:48;27.80;19.20
81218;DHT22;70689;52.494;13.420;2023-07-13T15:50:16;27.80;19.60
81218;DHT22;70689;52.494;13.420;2023-07-13T15:52:43;27.70;19.70
81218;DHT22;70689;52.494;13.420;2023-07-13T15:55:11;27.70;20.30